Time;durP1;ratioP1;P1;durP2;ratioP2;P2;SDS_P1;SDS_P2;PMS_P1;PMS_P2;Temp;Humidity;BMP_temperature;BMP_pressure;BME280_temperature;BME280_humidity;BME280_pressure;Samples;Min_cycle;Max_cycle;Signal;HPM_P1;HPM_P2
2022/10/22 00:00:18;;;;;;;1.42;0.70;;;13.50;99.90;;;;;;6137985;23;20668;-74
2022/10/22 00:02:45;;;;;;;1.00;0.80;;;13.50;99.90;;;;;;6125034;23;20198;-73
2022/10/22 00:05:12;;;;;;;1.08;0.80;;;13.50;99.90;;;;;;6120121;23;20603;-74
2022/10/22 00:07:39;;;;;;;1.00;0.80;;;13.50;99.90;;;;;;6136114;23;20214;-74
2022/10/22 00:10:10;;;;;;;1.27;1.10;;;13.40;99.90;;;;;;6146726;23;20278;-74
2022/10/22 00:12:37;;;;;;;1.00;0.85;;;13.40;99.90;;;;;;6130810;23;20437;-74
2022/10/22 00:15:05;;;;;;;1.47;0.73;;;13.30;99.90;;;;;;6128719;23;20226;-74
2022/10/22 00:17:32;;;;;;;1.50;1.00;;;13.30;99.90;;;;;;6130719;23;20499;-74
2022/10/22 00:19:59;;;;;;;1.13;0.90;;;13.30;99.90;;;;;;6124581;23;20491;-74
2022/10/22 00:22:26;;;;;;;1.55;0.90;;;13.30;99.90;;;;;;6132041;23;20441;-74
2022/10/22 00:24:53;;;;;;;4.60;1.13;;;13.20;99.90;;;;;;6120366;23;20191;-74
2022/10/22 00:27:22;;;;;;;1.93;1.10;;;13.20;99.90;;;;;;6119311;23;20253;-74
2022/10/22 00:29:49;;;;;;;2.00;1.10;;;13.20;99.90;;;;;;6119737;23;21024;-73
2022/10/22 00:32:16;;;;;;;1.23;1.10;;;13.20;99.90;;;;;;6121919;23;20191;-74
2022/10/22 00:34:44;;;;;;;1.63;1.00;;;13.20;99.90;;;;;;6118476;23;20248;-74
2022/10/22 00:37:11;;;;;;;1.60;1.05;;;13.20;99.90;;;;;;6091987;23;20732;-74
2022/10/22 00:39:38;;;;;;;1.05;0.70;;;13.10;99.90;;;;;;6121401;23;20270;-74
2022/10/22 00:42:05;;;;;;;0.85;0.70;;;13.20;99.90;;;;;;6116601;23;20199;-74
2022/10/22 00:45:02;;;;;;;0.95;0.80;;;13.20;99.90;;;;;;6123576;23;20199;-74
2022/10/22 00:47:33;;;;;;;2.67;0.90;;;13.20;99.90;;;;;;6118914;23;20218;-74
2022/10/22 00:50:01;;;;;;;1.95;1.25;;;13.20;99.90;;;;;;6129688;23;20221;-74
2022/10/22 00:52:29;;;;;;;2.85;1.10;;;13.20;99.90;;;;;;6137691;23;20195;-74
2022/10/22 00:54:57;;;;;;;0.95;0.75;;;13.20;99.90;;;;;;6119806;23;20663;-74
2022/10/22 00:57:24;;;;;;;1.15;0.75;;;13.20;99.90;;;;;;6127604;23;20732;-74
2022/10/22 00:59:51;;;;;;;0.90;0.70;;;13.20;99.90;;;;;;6135136;23;20191;-74
2022/10/22 01:02:20;;;;;;;1.00;0.90;;;13.30;99.90;;;;;;6093054;23;20646;-74
2022/10/22 01:04:47;;;;;;;1.83;0.90;;;13.30;99.90;;;;;;6119961;23;20193;-74
2022/10/22 01:07:18;;;;;;;1.10;0.90;;;13.30;99.90;;;;;;6120286;23;20298;-74
2022/10/22 01:09:55;;;;;;;1.60;0.80;;;13.30;99.90;;;;;;6133058;23;20731;-74
2022/10/22 01:12:32;;;;;;;0.65;0.65;;;13.30;99.90;;;;;;6125259;23;20199;-74
2022/10/22 01:15:10;;;;;;;1.77;0.70;;;13.40;99.90;;;;;;6091857;23;20227;-74
2022/10/22 01:17:47;;;;;;;1.10;0.68;;;13.40;99.90;;;;;;6117228;23;20195;-74
2022/10/22 01:20:35;;;;;;;1.00;0.70;;;13.40;99.90;;;;;;6120035;23;20190;-74
2022/10/22 01:23:16;;;;;;;1.00;0.60;;;13.40;99.90;;;;;;6118630;23;20199;-74
2022/10/22 01:25:53;;;;;;;0.95;0.70;;;13.40;99.90;;;;;;6123090;23;20704;-74
2022/10/22 01:28:35;;;;;;;1.53;0.73;;;13.40;99.90;;;;;;6121428;23;20207;-74
2022/10/22 01:31:04;;;;;;;2.55;0.95;;;13.40;99.90;;;;;;6126425;23;20531;-74
2022/10/22 01:33:33;;;;;;;0.98;0.80;;;13.40;99.90;;;;;;6124336;23;20222;-74
2022/10/22 01:36:01;;;;;;;0.80;0.65;;;13.40;99.90;;;;;;6120408;23;20191;-74
2022/10/22 01:38:29;;;;;;;1.55;0.70;;;13.30;99.90;;;;;;6109424;23;20192;-74
2022/10/22 01:40:57;;;;;;;1.35;0.93;;;13.30;99.90;;;;;;6115967;23;20191;-74
2022/10/22 01:43:24;;;;;;;2.22;0.90;;;13.30;99.90;;;;;;6115999;23;20211;-74
2022/10/22 01:45:59;;;;;;;1.45;0.98;;;13.30;99.90;;;;;;6120296;23;20674;-74
2022/10/22 01:48:39;;;;;;;1.67;1.00;;;13.40;99.90;;;;;;6136141;23;20663;-74
2022/10/22 01:51:36;;;;;;;1.30;0.60;;;13.40;99.90;;;;;;6119925;23;20469;-74
2022/10/22 01:54:12;;;;;;;0.80;0.80;;;13.40;99.90;;;;;;6121133;23;20733;-74
2022/10/22 01:56:54;;;;;;;1.08;0.90;;;13.40;99.90;;;;;;6120339;23;20236;-74
2022/10/22 01:59:32;;;;;;;1.52;0.60;;;13.50;99.90;;;;;;6141175;23;20227;-74
2022/10/22 02:02:05;;;;;;;1.05;0.80;;;13.40;99.90;;;;;;6118785;23;20188;-74
2022/10/22 02:04:41;;;;;;;2.00;0.60;;;13.50;99.90;;;;;;6115423;23;20278;-74
2022/10/22 02:07:12;;;;;;;0.70;0.60;;;13.50;99.90;;;;;;6123509;23;20211;-74
2022/10/22 02:09:41;;;;;;;0.95;0.80;;;13.50;99.90;;;;;;6107472;23;20546;-74
2022/10/22 02:12:10;;;;;;;2.20;0.70;;;13.50;99.90;;;;;;6103314;23;20262;-74
2022/10/22 02:14:41;;;;;;;1.37;0.70;;;13.60;99.90;;;;;;6119994;23;20495;-74
2022/10/22 02:17:14;;;;;;;1.43;0.70;;;13.60;99.90;;;;;;6120767;23;20426;-74
2022/10/22 02:19:47;;;;;;;1.30;0.60;;;13.60;99.90;;;;;;6125345;23;20869;-73
2022/10/22 02:22:14;;;;;;;1.00;0.90;;;13.70;99.90;;;;;;6119034;23;20473;-74
2022/10/22 02:24:42;;;;;;;1.17;0.50;;;13.90;99.90;;;;;;6120380;23;20531;-74
2022/10/22 02:27:14;;;;;;;0.60;0.60;;;13.80;99.90;;;;;;6118874;23;20466;-74
2022/10/22 02:29:49;;;;;;;1.90;0.90;;;13.90;99.90;;;;;;6115599;23;20441;-74
2022/10/22 02:32:22;;;;;;;0.90;0.63;;;13.90;99.90;;;;;;6116446;23;20499;-74
2022/10/22 02:34:51;;;;;;;1.57;0.67;;;13.90;99.90;;;;;;6120822;23;20446;-74
2022/10/22 02:37:19;;;;;;;0.70;0.60;;;14.00;99.90;;;;;;6130861;23;20437;-74
2022/10/22 02:39:46;;;;;;;1.63;0.77;;;14.10;99.90;;;;;;6118966;23;20465;-74
2022/10/22 02:42:14;;;;;;;0.97;0.80;;;14.10;99.90;;;;;;6127839;23;20489;-74
2022/10/22 02:44:41;;;;;;;1.07;0.60;;;14.10;99.90;;;;;;6120526;23;20901;-74
2022/10/22 02:47:08;;;;;;;0.63;0.50;;;14.10;99.90;;;;;;6119749;23;20518;-74
2022/10/22 02:49:36;;;;;;;1.33;0.80;;;14.10;99.90;;;;;;6121445;23;20890;-74
2022/10/22 02:52:03;;;;;;;1.23;0.70;;;14.10;99.90;;;;;;6119543;23;20440;-74
2022/10/22 02:54:30;;;;;;;0.90;0.70;;;14.00;99.90;;;;;;6127141;23;20439;-74
2022/10/22 02:56:58;;;;;;;1.83;0.70;;;14.00;99.90;;;;;;6131990;23;20944;-74
2022/10/22 02:59:25;;;;;;;1.23;0.70;;;13.90;99.90;;;;;;6139698;23;20425;-74
2022/10/22 03:01:52;;;;;;;1.63;0.60;;;13.90;99.90;;;;;;6118413;23;20839;-74
2022/10/22 03:04:19;;;;;;;1.08;0.70;;;13.80;99.90;;;;;;6122150;23;20525;-74
2022/10/22 03:06:48;;;;;;;0.90;0.80;;;13.70;99.90;;;;;;6119764;23;20285;-73
2022/10/22 03:09:15;;;;;;;1.30;0.90;;;13.60;99.90;;;;;;6119224;23;20214;-74
2022/10/22 03:11:43;;;;;;;1.20;0.82;;;13.60;99.90;;;;;;6136094;23;20191;-74
2022/10/22 03:14:10;;;;;;;1.90;1.20;;;13.50;99.90;;;;;;6134434;23;20207;-74
2022/10/22 03:16:37;;;;;;;1.52;0.75;;;13.60;99.90;;;;;;6136348;23;20511;-74
2022/10/22 03:19:04;;;;;;;1.83;0.90;;;13.40;99.90;;;;;;6124942;23;20271;-74
2022/10/22 03:21:37;;;;;;;0.80;0.70;;;13.50;99.90;;;;;;6135976;23;20434;-74
2022/10/22 03:24:10;;;;;;;0.90;0.80;;;13.50;99.90;;;;;;6124372;23;20687;-74
2022/10/22 03:26:39;;;;;;;0.70;0.60;;;13.50;99.90;;;;;;6137965;23;20428;-74
2022/10/22 03:29:06;;;;;;;2.75;0.80;;;13.50;99.90;;;;;;6124567;23;20264;-74
2022/10/22 03:31:33;;;;;;;2.17;0.90;;;13.50;99.90;;;;;;6124645;23;20291;-74
2022/10/22 03:34:00;;;;;;;1.00;0.80;;;13.50;99.90;;;;;;6129805;23;20903;-74
2022/10/22 03:36:28;;;;;;;1.20;0.80;;;13.50;99.90;;;;;;6146492;23;20464;-73
2022/10/22 03:38:55;;;;;;;1.43;0.80;;;13.50;99.90;;;;;;6128033;23;20461;-74
2022/10/22 03:41:24;;;;;;;3.23;1.00;;;13.50;99.90;;;;;;6119834;23;20437;-74
2022/10/22 03:43:52;;;;;;;3.45;1.55;;;13.50;99.90;;;;;;6119202;23;20438;-73
2022/10/22 03:46:20;;;;;;;1.57;1.10;;;13.40;99.90;;;;;;6119320;23;20234;-73
2022/10/22 03:48:47;;;;;;;1.17;0.73;;;13.40;99.90;;;;;;6119656;23;20501;-74
2022/10/22 03:51:14;;;;;;;1.40;1.00;;;13.40;99.90;;;;;;6119620;23;20513;-74
2022/10/22 03:53:41;;;;;;;1.67;1.00;;;13.30;99.90;;;;;;6118875;23;20442;-74
2022/10/22 03:56:09;;;;;;;1.65;0.88;;;13.30;99.90;;;;;;6126784;23;20465;-74
2022/10/22 03:58:40;;;;;;;2.80;1.05;;;13.30;99.90;;;;;;6117835;23;20268;-74
2022/10/22 04:01:08;;;;;;;1.23;0.80;;;13.30;99.90;;;;;;6118781;23;20192;-74
2022/10/22 04:03:35;;;;;;;1.17;0.80;;;13.20;99.90;;;;;;6131552;23;20444;-73
2022/10/22 04:06:03;;;;;;;1.30;1.00;;;13.20;99.90;;;;;;6138789;23;20776;-74
2022/10/22 04:08:30;;;;;;;2.00;0.90;;;13.10;99.90;;;;;;6120014;23;20450;-73
2022/10/22 04:10:57;;;;;;;1.93;1.10;;;13.10;99.90;;;;;;6129651;23;20541;-73
2022/10/22 04:13:24;;;;;;;1.17;1.07;;;13.10;99.90;;;;;;6135354;23;20442;-74
2022/10/22 04:15:53;;;;;;;2.70;1.10;;;13.10;99.90;;;;;;6120498;23;20434;-74
2022/10/22 04:18:22;;;;;;;2.23;1.10;;;13.10;99.90;;;;;;6122140;23;20768;-74
2022/10/22 04:20:51;;;;;;;2.77;0.97;;;13.20;99.90;;;;;;6124017;23;20462;-74
2022/10/22 04:23:18;;;;;;;1.60;0.90;;;13.20;99.90;;;;;;6115938;23;20992;-74
2022/10/22 04:25:45;;;;;;;1.07;0.90;;;13.20;99.90;;;;;;6123760;23;20519;-74
2022/10/22 04:28:13;;;;;;;0.80;0.80;;;13.00;99.90;;;;;;6127919;23;20464;-74
2022/10/22 04:30:40;;;;;;;1.90;1.03;;;13.20;99.90;;;;;;6125707;23;20291;-74
2022/10/22 04:33:08;;;;;;;1.40;0.77;;;13.20;99.90;;;;;;6124923;23;20966;-74
2022/10/22 04:35:38;;;;;;;4.70;1.07;;;13.20;99.90;;;;;;6119037;23;20472;-74
2022/10/22 04:38:06;;;;;;;1.05;0.82;;;13.30;99.90;;;;;;6119770;23;20425;-74
2022/10/22 04:40:33;;;;;;;0.90;0.80;;;13.20;99.90;;;;;;6119220;23;20213;-74
2022/10/22 04:43:00;;;;;;;1.80;1.13;;;13.20;99.90;;;;;;6117406;23;20506;-74
2022/10/22 04:45:28;;;;;;;1.23;0.87;;;13.30;99.90;;;;;;6119057;23;20436;-74
2022/10/22 04:47:55;;;;;;;3.20;0.85;;;13.30;99.90;;;;;;6117064;23;20732;-74
2022/10/22 04:50:24;;;;;;;2.00;0.97;;;13.30;99.90;;;;;;6111721;23;20289;-74
2022/10/22 04:52:51;;;;;;;0.90;0.63;;;13.30;99.90;;;;;;6118167;23;20461;-74
2022/10/22 04:55:18;;;;;;;1.90;0.90;;;13.40;99.90;;;;;;6116393;23;20473;-74
2022/10/22 04:57:46;;;;;;;1.33;0.70;;;13.40;99.90;;;;;;6116960;23;20443;-73
2022/10/22 05:00:15;;;;;;;2.00;0.70;;;13.40;99.90;;;;;;6118514;23;20426;-73
2022/10/22 05:02:43;;;;;;;1.30;0.83;;;13.50;99.90;;;;;;6135002;23;20437;-73
2022/10/22 05:05:11;;;;;;;2.03;0.70;;;13.50;99.90;;;;;;6131283;23;20995;-73
2022/10/22 05:07:39;;;;;;;2.20;0.90;;;13.60;99.90;;;;;;6135648;23;20899;-73
2022/10/22 05:10:07;;;;;;;1.13;0.90;;;13.60;99.90;;;;;;6128677;23;20956;-73
2022/10/22 05:12:35;;;;;;;1.00;0.83;;;13.60;99.90;;;;;;6117324;23;20426;-73
2022/10/22 05:15:02;;;;;;;1.00;0.70;;;13.70;99.90;;;;;;6117963;23;20470;-73
2022/10/22 05:17:29;;;;;;;1.30;0.80;;;13.70;99.90;;;;;;6124104;23;20544;-73
2022/10/22 05:19:56;;;;;;;0.90;0.70;;;13.70;99.90;;;;;;6121531;23;20916;-73
2022/10/22 05:22:23;;;;;;;3.17;0.80;;;13.80;99.90;;;;;;6118057;23;20885;-73
2022/10/22 05:24:52;;;;;;;1.10;0.70;;;13.80;99.90;;;;;;6131015;23;20875;-73
2022/10/22 05:27:19;;;;;;;1.73;0.90;;;14.00;99.90;;;;;;6113034;23;20448;-73
2022/10/22 05:29:46;;;;;;;2.27;0.80;;;13.90;99.90;;;;;;6142909;23;20505;-73
2022/10/22 05:32:13;;;;;;;1.33;0.83;;;13.90;99.90;;;;;;6131880;23;20469;-73
2022/10/22 05:34:40;;;;;;;2.63;0.80;;;13.90;99.90;;;;;;6119055;23;20438;-73
2022/10/22 05:37:07;;;;;;;1.80;0.70;;;13.90;99.90;;;;;;6118318;23;20911;-73
2022/10/22 05:39:35;;;;;;;3.00;0.70;;;13.90;99.90;;;;;;6140345;23;20927;-73
2022/10/22 05:42:04;;;;;;;0.70;0.70;;;13.90;99.90;;;;;;6130137;23;20823;-73
2022/10/22 05:44:31;;;;;;;0.80;0.70;;;13.90;99.90;;;;;;6121007;23;20758;-73
2022/10/22 05:46:58;;;;;;;0.93;0.83;;;13.90;99.90;;;;;;6119120;23;20485;-73
2022/10/22 05:49:25;;;;;;;3.73;1.10;;;13.90;99.90;;;;;;6128904;23;20873;-73
2022/10/22 05:51:52;;;;;;;1.73;0.90;;;13.90;99.90;;;;;;6118011;23;20525;-73
2022/10/22 05:54:21;;;;;;;1.13;0.80;;;13.90;99.90;;;;;;6120443;23;20437;-73
2022/10/22 05:56:48;;;;;;;1.45;0.50;;;13.90;99.90;;;;;;6132139;23;20464;-73
2022/10/22 05:59:16;;;;;;;0.77;0.77;;;13.90;99.90;;;;;;6118881;23;20217;-73
2022/10/22 06:01:44;;;;;;;1.30;0.70;;;13.90;99.90;;;;;;6133310;23;20526;-73
2022/10/22 06:04:12;;;;;;;1.50;0.90;;;14.00;99.90;;;;;;6132459;23;20437;-73
2022/10/22 06:06:42;;;;;;;1.23;0.88;;;13.90;99.90;;;;;;6127988;23;20520;-73
2022/10/22 06:09:16;;;;;;;3.00;0.90;;;14.00;99.90;;;;;;6135229;23;20224;-73
2022/10/22 06:11:43;;;;;;;1.93;0.90;;;13.90;99.90;;;;;;6120153;23;20942;-73
2022/10/22 06:14:11;;;;;;;0.73;0.73;;;13.90;99.90;;;;;;6122821;23;20434;-73
2022/10/22 06:16:40;;;;;;;2.73;1.03;;;13.90;99.90;;;;;;6125531;23;20467;-73
2022/10/22 06:19:08;;;;;;;1.10;0.80;;;14.00;99.90;;;;;;6126309;23;20470;-73
2022/10/22 06:21:35;;;;;;;0.90;0.70;;;13.90;99.90;;;;;;6119543;23;20423;-73
2022/10/22 06:24:02;;;;;;;1.23;0.90;;;13.90;99.90;;;;;;6112730;23;20458;-73
2022/10/22 06:26:30;;;;;;;2.00;0.90;;;13.90;99.90;;;;;;6120854;23;20469;-73
2022/10/22 06:28:57;;;;;;;3.30;1.50;;;13.90;99.90;;;;;;6120209;23;20595;-73
2022/10/22 06:31:25;;;;;;;2.07;1.10;;;13.90;99.90;;;;;;6120550;23;20434;-74
2022/10/22 06:33:54;;;;;;;2.20;1.10;;;13.80;99.90;;;;;;6117988;23;20521;-73
2022/10/22 06:36:24;;;;;;;1.23;0.90;;;13.80;99.90;;;;;;6117962;23;20279;-74
2022/10/22 06:38:52;;;;;;;2.40;1.43;;;13.80;99.90;;;;;;6117363;23;20445;-73
2022/10/22 06:41:19;;;;;;;1.20;0.87;;;13.90;99.90;;;;;;6127824;23;20438;-73
2022/10/22 06:43:47;;;;;;;1.20;1.10;;;13.90;99.90;;;;;;6120391;23;20862;-73
2022/10/22 06:46:16;;;;;;;1.00;0.77;;;13.90;99.90;;;;;;6132247;23;20434;-74
2022/10/22 06:48:48;;;;;;;1.03;0.80;;;14.00;99.90;;;;;;6128608;23;20540;-73
2022/10/22 06:51:16;;;;;;;1.23;0.70;;;14.00;99.90;;;;;;6119118;23;20452;-74
2022/10/22 06:53:44;;;;;;;1.67;0.90;;;14.10;99.90;;;;;;6119614;23;20451;-73
2022/10/22 06:56:14;;;;;;;1.37;0.90;;;14.10;99.90;;;;;;6123063;23;20439;-73
2022/10/22 06:58:41;;;;;;;1.10;0.87;;;14.20;99.90;;;;;;6119985;23;20839;-73
2022/10/22 07:01:11;;;;;;;1.00;0.90;;;14.10;99.90;;;;;;6127224;23;20888;-73
2022/10/22 07:03:39;;;;;;;1.20;1.10;;;14.10;99.90;;;;;;6119533;23;20726;-73
2022/10/22 07:06:10;;;;;;;1.27;0.90;;;14.10;99.90;;;;;;6120513;23;20461;-73
2022/10/22 07:08:40;;;;;;;1.53;1.00;;;14.10;99.90;;;;;;6116926;23;20443;-73
2022/10/22 07:11:09;;;;;;;1.17;1.07;;;14.20;99.90;;;;;;6120056;23;20473;-73
2022/10/22 07:13:37;;;;;;;2.27;0.90;;;14.20;99.90;;;;;;6125990;23;20443;-73
2022/10/22 07:16:05;;;;;;;1.47;1.07;;;14.30;99.90;;;;;;6128257;23;20471;-74
2022/10/22 07:18:32;;;;;;;1.37;0.87;;;14.30;99.90;;;;;;6118149;23;20443;-73
2022/10/22 07:21:00;;;;;;;1.13;1.00;;;14.50;99.90;;;;;;6118279;23;20860;-73
2022/10/22 07:23:28;;;;;;;1.77;1.13;;;14.70;99.90;;;;;;6120839;23;20760;-74
2022/10/22 07:25:57;;;;;;;2.30;1.10;;;14.80;99.90;;;;;;6142947;23;20518;-73
2022/10/22 07:28:24;;;;;;;1.13;1.00;;;14.90;99.90;;;;;;6143804;23;20490;-74
2022/10/22 07:30:51;;;;;;;3.00;1.00;;;15.10;99.90;;;;;;6143248;23;20506;-74
2022/10/22 07:33:18;;;;;;;2.20;1.00;;;15.30;99.90;;;;;;6123696;23;20453;-74
2022/10/22 07:35:45;;;;;;;1.13;1.03;;;15.40;99.90;;;;;;6109618;23;20460;-73
2022/10/22 07:38:13;;;;;;;1.00;0.80;;;15.50;99.90;;;;;;6115166;23;20437;-73
2022/10/22 07:40:40;;;;;;;3.00;1.17;;;15.60;99.90;;;;;;6107721;23;20426;-73
2022/10/22 07:43:08;;;;;;;1.00;0.80;;;15.60;99.90;;;;;;6111399;23;20442;-73
2022/10/22 07:45:36;;;;;;;1.40;1.00;;;15.60;99.90;;;;;;6120666;23;20441;-73
2022/10/22 07:48:03;;;;;;;2.43;0.90;;;15.60;99.90;;;;;;6133892;23;20430;-74
2022/10/22 07:50:30;;;;;;;2.03;1.50;;;15.70;99.90;;;;;;6118707;23;20442;-74
2022/10/22 07:52:57;;;;;;;1.63;1.50;;;15.70;99.90;;;;;;6116482;23;20517;-74
2022/10/22 07:55:25;;;;;;;1.67;0.97;;;15.80;99.90;;;;;;6119027;23;20463;-74
2022/10/22 07:57:52;;;;;;;2.70;1.20;;;15.80;99.90;;;;;;6117415;23;20834;-74
2022/10/22 08:00:21;;;;;;;0.97;0.87;;;15.80;99.90;;;;;;6098619;23;20461;-72
2022/10/22 08:02:48;;;;;;;1.50;1.00;;;15.70;99.90;;;;;;6119448;23;20421;-72
2022/10/22 08:05:15;;;;;;;1.80;0.90;;;15.80;99.90;;;;;;6119678;23;20453;-72
2022/10/22 08:07:42;;;;;;;2.20;1.10;;;16.10;99.90;;;;;;6119424;23;20437;-74
2022/10/22 08:10:11;;;;;;;2.73;1.00;;;16.40;99.90;;;;;;6119396;23;20457;-74
2022/10/22 08:12:39;;;;;;;1.10;1.00;;;16.70;99.90;;;;;;6119336;23;20505;-74
2022/10/22 08:15:07;;;;;;;3.20;1.30;;;17.00;99.90;;;;;;6119259;23;20995;-74
2022/10/22 08:17:36;;;;;;;2.40;1.10;;;17.60;99.90;;;;;;6119489;23;20422;-74
2022/10/22 08:20:03;;;;;;;2.50;0.97;;;18.20;99.90;;;;;;6119272;23;20472;-74
2022/10/22 08:22:30;;;;;;;1.70;1.17;;;18.40;99.90;;;;;;6119467;23;20429;-74
2022/10/22 08:24:59;;;;;;;2.43;1.00;;;18.70;99.90;;;;;;6119267;23;20431;-74
2022/10/22 08:27:26;;;;;;;1.77;1.00;;;18.90;99.90;;;;;;6119501;23;20435;-74
2022/10/22 08:29:54;;;;;;;1.37;0.90;;;19.10;99.90;;;;;;6127052;23;21030;-72
2022/10/22 08:32:21;;;;;;;1.27;1.07;;;19.20;99.90;;;;;;6115757;23;20532;-74
2022/10/22 08:34:49;;;;;;;2.47;1.30;;;19.50;99.90;;;;;;6104923;23;20992;-74
2022/10/22 08:37:17;;;;;;;1.53;0.90;;;19.60;99.90;;;;;;6122017;23;20784;-74
2022/10/22 08:39:45;;;;;;;1.27;0.83;;;19.70;99.90;;;;;;6111563;23;20436;-74
2022/10/22 08:42:33;;;;;;;1.50;0.93;;;19.80;99.90;;;;;;6115951;23;21003;-74
2022/10/22 08:45:11;;;;;;;1.80;0.87;;;20.00;99.90;;;;;;6121501;23;20437;-74
2022/10/22 08:47:54;;;;;;;1.63;1.03;;;20.10;99.90;;;;;;6115094;23;20501;-74
2022/10/22 08:50:35;;;;;;;1.40;1.30;;;19.80;99.90;;;;;;6109112;23;20481;-74
2022/10/22 08:53:06;;;;;;;1.00;0.80;;;19.80;99.90;;;;;;6120358;23;20513;-73
2022/10/22 08:55:35;;;;;;;2.10;1.10;;;20.10;99.90;;;;;;6117783;23;20433;-74
2022/10/22 08:58:14;;;;;;;3.63;0.97;;;20.30;99.90;;;;;;6121829;23;20534;-74
2022/10/22 09:00:46;;;;;;;1.87;0.90;;;20.70;99.90;;;;;;6109560;23;20430;-74
2022/10/22 09:03:28;;;;;;;1.17;1.07;;;21.00;99.90;;;;;;6121708;23;20488;-74
2022/10/22 09:06:05;;;;;;;1.50;1.20;;;21.10;99.90;;;;;;6118268;23;20444;-74
2022/10/22 09:08:32;;;;;;;1.10;0.80;;;21.30;99.90;;;;;;6122346;23;20457;-74
2022/10/22 09:11:05;;;;;;;2.10;1.20;;;21.30;99.90;;;;;;6111136;23;20458;-74
2022/10/22 09:13:33;;;;;;;3.10;1.03;;;21.30;99.90;;;;;;6116429;23;20441;-74
2022/10/22 09:16:09;;;;;;;1.47;1.00;;;21.60;99.90;;;;;;6122737;23;20509;-74
2022/10/22 09:18:47;;;;;;;2.73;1.00;;;21.60;99.90;;;;;;6122160;23;20502;-74
2022/10/22 09:21:25;;;;;;;1.13;1.03;;;21.60;99.90;;;;;;6112508;23;20460;-74
2022/10/22 09:24:00;;;;;;;1.30;0.80;;;21.60;99.90;;;;;;6137034;23;20497;-74
2022/10/22 09:26:28;;;;;;;2.10;1.03;;;21.70;99.90;;;;;;6123862;23;20448;-74
2022/10/22 09:28:59;;;;;;;1.80;0.90;;;21.70;99.90;;;;;;6131787;23;20460;-74
2022/10/22 09:31:30;;;;;;;2.37;0.90;;;21.90;99.90;;;;;;6113659;23;20453;-74
2022/10/22 09:34:00;;;;;;;2.33;0.87;;;21.90;99.90;;;;;;6134060;23;20465;-74
2022/10/22 09:36:29;;;;;;;1.07;0.70;;;21.90;99.90;;;;;;6131586;23;20460;-74
2022/10/22 09:38:56;;;;;;;2.67;0.80;;;22.10;99.90;;;;;;6117712;23;20437;-75
2022/10/22 09:41:27;;;;;;;1.50;1.00;;;22.20;99.90;;;;;;6128743;23;20500;-75
2022/10/22 09:43:54;;;;;;;0.80;0.70;;;22.10;99.90;;;;;;6125128;23;20432;-75
2022/10/22 09:46:23;;;;;;;2.20;0.90;;;22.60;99.90;;;;;;6136207;23;20436;-75
2022/10/22 09:49:00;;;;;;;1.50;0.90;;;22.60;99.90;;;;;;6125210;23;20926;-75
2022/10/22 09:51:40;;;;;;;1.00;0.80;;;22.70;99.90;;;;;;6135434;23;20930;-75
2022/10/22 09:54:15;;;;;;;1.10;0.90;;;22.90;99.90;;;;;;6118388;23;20422;-75
2022/10/22 09:56:47;;;;;;;1.57;0.80;;;23.10;99.90;;;;;;6117886;23;20931;-75
2022/10/22 09:59:16;;;;;;;1.10;0.80;;;22.90;99.90;;;;;;6115703;23;20497;-76
2022/10/22 10:01:43;;;;;;;1.40;0.97;;;23.10;99.90;;;;;;6131581;23;20512;-74
2022/10/22 10:04:12;;;;;;;1.10;0.70;;;23.20;99.90;;;;;;6117877;23;20498;-74
2022/10/22 10:06:43;;;;;;;1.23;0.70;;;23.20;99.90;;;;;;6119996;23;20474;-74
2022/10/22 10:09:16;;;;;;;2.40;0.87;;;23.20;99.90;;;;;;6119373;23;20461;-74
2022/10/22 10:11:48;;;;;;;1.83;0.70;;;23.40;99.90;;;;;;6119596;23;20484;-74
2022/10/22 10:14:21;;;;;;;2.10;0.80;;;23.60;99.90;;;;;;6119787;23;20535;-74
2022/10/22 10:16:58;;;;;;;1.00;0.80;;;23.90;99.90;;;;;;6119556;23;20440;-75
2022/10/22 10:19:37;;;;;;;1.93;0.70;;;24.30;99.90;;;;;;6119210;23;20427;-74
2022/10/22 10:22:16;;;;;;;0.90;0.73;;;24.60;99.90;;;;;;6118497;23;20490;-74
2022/10/22 10:24:59;;;;;;;2.23;1.00;;;24.50;99.90;;;;;;6117550;23;20900;-74
2022/10/22 10:27:32;;;;;;;0.90;0.80;;;24.00;99.90;;;;;;6105775;23;20440;-74
2022/10/22 10:30:05;;;;;;;1.13;0.87;;;23.60;99.90;;;;;;6119277;23;20511;-74
2022/10/22 10:32:48;;;;;;;1.43;0.90;;;23.40;99.90;;;;;;6147187;23;20512;-74
2022/10/22 10:35:24;;;;;;;1.63;1.03;;;23.50;99.90;;;;;;6133021;23;20861;-75
2022/10/22 10:38:07;;;;;;;1.40;0.83;;;23.90;99.90;;;;;;6123926;23;20979;-74
2022/10/22 10:40:44;;;;;;;1.00;0.83;;;24.40;99.90;;;;;;6129380;23;20414;-74
2022/10/22 10:43:19;;;;;;;1.47;0.90;;;24.90;99.90;;;;;;6122401;23;20440;-75
2022/10/22 10:45:57;;;;;;;1.10;0.90;;;25.20;99.90;;;;;;6107134;23;20503;-74
2022/10/22 10:48:36;;;;;;;1.63;0.90;;;25.40;99.90;;;;;;6114084;23;20524;-74
2022/10/22 10:51:11;;;;;;;0.97;0.87;;;25.50;99.90;;;;;;6111775;23;20503;-74
2022/10/22 10:53:55;;;;;;;1.70;1.10;;;25.60;99.90;;;;;;6127254;23;20429;-75
2022/10/22 10:56:32;;;;;;;2.00;0.80;;;24.90;99.90;;;;;;6124815;23;20437;-74
2022/10/22 10:59:10;;;;;;;2.50;0.80;;;24.50;99.90;;;;;;6121918;23;20440;-74
2022/10/22 11:01:46;;;;;;;4.27;1.30;;;24.50;99.90;;;;;;6109717;23;20429;-74
2022/10/22 11:04:39;;;;;;;1.27;0.97;;;24.60;99.90;;;;;;6131317;23;20436;-74
2022/10/22 11:07:12;;;;;;;2.17;1.00;;;24.80;99.90;;;;;;6105579;23;20440;-73
2022/10/22 11:09:46;;;;;;;1.87;1.00;;;25.30;99.90;;;;;;6112965;23;20617;-74
2022/10/22 11:12:22;;;;;;;1.50;0.90;;;25.90;99.90;;;;;;6121522;23;20467;-74
2022/10/22 11:14:58;;;;;;;1.57;0.80;;;26.50;99.90;;;;;;6112406;23;20825;-74
2022/10/22 11:17:32;;;;;;;0.93;0.83;;;27.20;99.90;;;;;;6115086;23;20441;-74
2022/10/22 11:20:06;;;;;;;1.27;0.90;;;27.60;99.90;;;;;;6124750;23;20459;-74
2022/10/22 11:22:36;;;;;;;0.80;0.73;;;27.90;99.90;;;;;;6131122;23;20565;-74
2022/10/22 11:25:16;;;;;;;1.60;0.80;;;28.10;99.90;;;;;;6122506;23;20453;-74
2022/10/22 11:27:48;;;;;;;1.63;0.83;;;28.40;99.90;;;;;;6134690;23;20588;-74
2022/10/22 11:30:17;;;;;;;0.90;0.80;;;28.50;99.90;;;;;;6124720;23;21061;-74
2022/10/22 11:32:49;;;;;;;1.30;0.90;;;28.80;99.90;;;;;;6116216;23;20433;-74
2022/10/22 11:35:22;;;;;;;2.17;0.80;;;28.90;99.90;;;;;;6125391;23;20563;-74
2022/10/22 11:37:51;;;;;;;2.00;0.90;;;29.00;99.90;;;;;;6128332;23;20500;-74
2022/10/22 11:40:22;;;;;;;2.40;1.07;;;28.90;99.90;;;;;;6119758;23;20471;-74
2022/10/22 11:42:53;;;;;;;1.60;1.03;;;29.10;99.90;;;;;;6134623;23;20608;-74
2022/10/22 11:45:29;;;;;;;1.97;0.90;;;29.20;99.90;;;;;;6122239;23;20437;-74
2022/10/22 11:48:06;;;;;;;1.17;0.77;;;28.80;98.20;;;;;;6106735;23;20908;-74
2022/10/22 11:50:49;;;;;;;1.50;0.90;;;28.40;99.80;;;;;;6111430;23;20440;-74
2022/10/22 11:53:29;;;;;;;1.93;0.83;;;28.40;99.70;;;;;;6114596;23;20456;-74
2022/10/22 11:56:02;;;;;;;2.80;1.10;;;28.30;99.50;;;;;;6113948;23;20433;-74
2022/10/22 11:58:32;;;;;;;1.57;0.70;;;28.50;98.30;;;;;;6124452;23;20457;-74
2022/10/22 12:01:33;;;;;;;0.70;0.70;;;28.50;99.30;;;;;;6113729;23;20446;-74
2022/10/22 12:04:22;;;;;;;2.30;0.83;;;28.70;98.10;;;;;;6115677;23;20480;-74
2022/10/22 12:07:24;;;;;;;1.03;0.83;;;29.00;98.90;;;;;;6125966;23;20460;-74
2022/10/22 12:09:52;;;;;;;1.80;0.77;;;29.20;97.30;;;;;;6110946;23;20520;-74
2022/10/22 12:12:21;;;;;;;1.50;1.00;;;29.20;96.60;;;;;;6123755;23;20479;-74
2022/10/22 12:14:54;;;;;;;1.33;0.90;;;29.20;97.20;;;;;;6128359;23;20434;-73
2022/10/22 12:17:22;;;;;;;1.20;0.80;;;29.10;94.80;;;;;;6120254;23;20444;-74
2022/10/22 12:19:54;;;;;;;1.30;1.00;;;28.70;95.90;;;;;;6131932;23;20426;-74
2022/10/22 12:22:28;;;;;;;2.10;1.07;;;28.30;95.20;;;;;;6121806;23;20445;-74
2022/10/22 12:25:00;;;;;;;1.80;0.97;;;28.00;95.70;;;;;;6127379;23;20436;-74
2022/10/22 12:27:35;;;;;;;1.30;0.90;;;27.80;94.40;;;;;;6123099;23;20510;-74
2022/10/22 12:30:16;;;;;;;1.33;0.83;;;27.10;95.60;;;;;;6112011;23;20437;-74
2022/10/22 12:32:43;;;;;;;1.37;0.90;;;26.70;96.00;;;;;;6116738;23;20483;-74
2022/10/22 12:35:16;;;;;;;1.97;1.00;;;26.30;96.40;;;;;;6114380;23;20440;-74
2022/10/22 12:37:44;;;;;;;1.30;0.80;;;25.80;97.50;;;;;;6121291;23;20461;-73
2022/10/22 12:40:18;;;;;;;2.50;0.90;;;25.70;98.40;;;;;;6116992;23;20429;-74
2022/10/22 12:43:10;;;;;;;2.27;1.00;;;25.80;98.40;;;;;;6117897;23;20482;-73
2022/10/22 12:45:38;;;;;;;2.20;1.10;;;25.80;97.10;;;;;;6117210;23;20437;-74
2022/10/22 12:48:14;;;;;;;2.77;1.20;;;25.40;98.00;;;;;;6119713;23;20445;-74
2022/10/22 12:50:44;;;;;;;1.73;0.90;;;25.10;99.10;;;;;;6120961;23;20433;-74
2022/10/22 12:53:15;;;;;;;1.80;1.10;;;25.10;99.20;;;;;;6120761;23;20581;-73
2022/10/22 12:55:46;;;;;;;1.10;0.90;;;25.10;99.30;;;;;;6125024;23;20433;-74
2022/10/22 12:58:18;;;;;;;1.40;0.80;;;25.40;99.40;;;;;;6130209;23;20503;-73
2022/10/22 13:00:47;;;;;;;1.67;0.90;;;25.70;98.50;;;;;;6123822;23;20914;-73
2022/10/22 13:03:30;;;;;;;2.83;1.10;;;26.00;97.90;;;;;;6137140;23;20895;-73
2022/10/22 13:06:14;;;;;;;1.60;1.00;;;26.00;96.50;;;;;;6126998;23;20428;-73